createdAt,value
2018-03-15T05:37:37.069Z,21.63
2018-03-15T05:40:09.232Z,18.97
2018-03-15T05:42:41.128Z,18.20
2018-03-15T05:45:13.256Z,21.53
2018-03-15T05:47:45.132Z,21.93
2018-03-15T05:50:17.879Z,23.20
2018-03-15T05:52:50.525Z,21.47
2018-03-15T05:55:22.404Z,21.57
2018-03-15T05:57:54.326Z,19.33
2018-03-15T06:00:26.200Z,23.67
2018-03-15T06:02:58.082Z,20.23
2018-03-15T06:05:29.965Z,23.50
2018-03-15T06:08:02.621Z,20.70
2018-03-15T06:10:34.824Z,22.07
2018-03-15T06:13:06.705Z,23.13
2018-03-15T06:15:38.588Z,18.77
2018-03-15T06:18:10.461Z,18.60
2018-03-15T06:20:42.363Z,21.03
2018-03-15T06:23:14.245Z,16.90
2018-03-15T06:25:46.131Z,20.47
2018-03-15T06:28:18.008Z,21.30
2018-03-15T06:30:49.891Z,21.77
2018-03-15T06:33:22.527Z,18.83
2018-03-15T06:35:54.433Z,19.20
2018-03-15T06:38:27.073Z,19.40
2018-03-15T06:40:58.983Z,19.37
2018-03-15T06:43:31.148Z,17.87
2018-03-15T06:46:03.066Z,18.03
2018-03-15T06:48:34.937Z,21.33
2018-03-15T06:51:06.836Z,18.83
2018-03-15T06:53:38.731Z,18.37
2018-03-15T06:56:10.851Z,17.03
2018-03-15T06:58:42.752Z,19.70
2018-03-15T07:01:14.649Z,21.83
2018-03-15T07:03:46.547Z,18.83
2018-03-15T07:06:18.415Z,22.20
2018-03-15T07:08:50.300Z,18.73
2018-03-15T07:11:22.210Z,20.27
2018-03-15T07:13:54.845Z,22.80
2018-03-15T07:16:26.742Z,19.37
2018-03-15T07:18:59.397Z,20.87
2018-03-15T07:21:31.290Z,19.33
2018-03-15T07:24:03.923Z,17.60
2018-03-15T07:26:35.825Z,21.43
2018-03-15T07:29:08.496Z,17.93
2018-03-15T07:31:41.154Z,16.23
2018-03-15T07:34:13.028Z,15.83
2018-03-15T07:36:45.691Z,18.47
2018-03-15T07:39:17.594Z,17.43
2018-03-15T07:41:49.753Z,22.90
2018-03-15T07:44:21.636Z,15.50
2018-03-15T07:46:53.524Z,19.27
2018-03-15T07:49:26.173Z,16.60
2018-03-15T07:51:58.820Z,17.80
2018-03-15T07:54:31.473Z,17.57
2018-03-15T07:57:03.356Z,18.80
2018-03-15T07:59:36.012Z,16.27
2018-03-15T08:02:07.911Z,16.73
2018-03-15T08:04:39.796Z,18.03
2018-03-15T08:07:11.706Z,17.27
2018-03-15T08:09:44.220Z,15.97
2018-03-15T08:12:16.115Z,16.27
2018-03-15T08:14:47.995Z,16.80
2018-03-15T08:17:20.668Z,16.90
2018-03-15T08:19:52.548Z,16.17
2018-03-15T08:22:25.204Z,16.93
2018-03-15T08:24:57.080Z,18.50
2018-03-15T08:27:29.981Z,18.33
2018-03-15T08:30:01.869Z,15.73
2018-03-15T08:32:33.756Z,16.57
2018-03-15T08:35:05.641Z,14.57
2018-03-15T08:37:37.529Z,19.80
2018-03-15T08:40:09.419Z,14.00
2018-03-15T08:42:41.296Z,17.23
2018-03-15T08:45:13.171Z,16.90
2018-03-15T08:47:45.059Z,13.40
2018-03-15T08:50:16.942Z,14.40
2018-03-15T08:52:48.845Z,12.83
2018-03-15T08:55:20.765Z,15.50
2018-03-15T08:57:52.627Z,13.83
2018-03-15T09:00:24.508Z,12.40
2018-03-15T09:02:56.628Z,14.07
2018-03-15T09:05:28.798Z,14.03
2018-03-15T09:08:00.684Z,14.50
2018-03-15T09:10:32.560Z,15.97
2018-03-15T09:13:04.596Z,14.50
2018-03-15T09:15:36.539Z,13.77
2018-03-15T09:18:09.185Z,14.47
2018-03-15T09:20:41.056Z,14.60
2018-03-15T09:23:12.963Z,13.63
2018-03-15T09:25:45.108Z,12.67
2018-03-15T09:28:17.040Z,11.50
2018-03-15T09:30:49.700Z,14.03
2018-03-15T09:33:21.608Z,14.23
2018-03-15T09:35:53.492Z,13.00
2018-03-15T09:38:25.632Z,12.47
2018-03-15T09:40:57.517Z,12.47
2018-03-15T09:43:29.453Z,12.33
2018-03-15T09:46:01.342Z,12.97
2018-03-15T09:48:33.310Z,12.50
2018-03-15T09:51:05.446Z,12.87
2018-03-15T09:53:37.345Z,12.80
2018-03-15T09:56:09.220Z,11.80
2018-03-15T09:58:41.128Z,11.70
2018-03-15T10:01:13.012Z,9.53
2018-03-15T10:03:44.959Z,10.43
2018-03-15T10:06:17.595Z,14.97
2018-03-15T10:08:50.256Z,11.67
2018-03-15T10:11:22.140Z,12.43
2018-03-15T10:13:54.804Z,12.73
2018-03-15T10:16:26.692Z,13.37
2018-03-15T10:18:58.588Z,10.20
2018-03-15T10:21:30.724Z,10.90
2018-03-15T10:24:02.635Z,8.37
2018-03-15T10:26:34.536Z,11.27
2018-03-15T10:29:06.442Z,11.27
2018-03-15T10:31:38.327Z,11.00
2018-03-15T10:34:10.224Z,11.77
2018-03-15T10:36:42.392Z,10.47
2018-03-15T10:39:14.287Z,7.83
2018-03-15T10:41:46.163Z,8.33
2018-03-15T10:44:18.173Z,12.30
2018-03-15T10:46:50.060Z,10.83
2018-03-15T10:49:21.958Z,10.13
2018-03-15T10:51:54.164Z,8.73
2018-03-15T10:54:26.073Z,10.57
2018-03-15T10:56:57.966Z,8.03
2018-03-15T10:59:30.867Z,9.40
2018-03-15T11:02:02.747Z,9.23
2018-03-15T11:04:34.651Z,10.00
2018-03-15T11:07:06.583Z,9.17
2018-03-15T11:09:38.722Z,8.90
2018-03-15T11:12:10.618Z,8.23
2018-03-15T11:14:42.560Z,10.27
2018-03-15T11:17:14.447Z,8.73
2018-03-15T11:19:46.351Z,9.03
2018-03-15T11:22:18.534Z,8.87
2018-03-15T11:24:50.432Z,11.27
2018-03-15T11:27:22.556Z,10.20
2018-03-15T11:29:54.461Z,10.07
2018-03-15T11:32:26.373Z,11.00
2018-03-15T11:34:58.272Z,8.97
2018-03-15T11:37:30.192Z,11.33
2018-03-15T11:40:02.839Z,9.47
2018-03-15T11:42:35.509Z,10.00
2018-03-15T11:45:07.412Z,10.13
2018-03-15T11:47:39.296Z,12.40
2018-03-15T11:50:11.194Z,10.70
2018-03-15T11:52:43.096Z,11.57
2018-03-15T11:55:14.999Z,9.37
2018-03-15T11:57:46.884Z,8.43
2018-03-15T12:00:18.778Z,9.17
2018-03-15T12:02:50.655Z,10.90
2018-03-15T12:05:22.565Z,8.60
2018-03-15T12:07:55.236Z,7.43
2018-03-15T12:10:27.440Z,10.27
2018-03-15T12:12:59.615Z,8.43
2018-03-15T12:15:31.531Z,10.67
2018-03-15T12:18:03.430Z,8.37
2018-03-15T12:20:36.312Z,11.80
2018-03-15T12:23:08.966Z,8.43
2018-03-15T12:25:41.636Z,10.40
2018-03-15T12:28:13.517Z,9.37
2018-03-15T12:30:46.207Z,9.00
2018-03-15T12:33:18.100Z,9.33
2018-03-15T12:35:50.017Z,8.63
2018-03-15T12:38:22.756Z,9.03
2018-03-15T12:40:54.644Z,9.37
2018-03-15T12:43:26.526Z,10.07
2018-03-15T12:45:59.412Z,6.53
2018-03-15T12:48:31.292Z,9.27
2018-03-15T12:51:03.175Z,7.90
2018-03-15T12:53:35.064Z,7.10
2018-03-15T12:56:06.952Z,9.07
2018-03-15T12:58:38.828Z,10.57
2018-03-15T13:01:10.729Z,7.40
2018-03-15T13:03:42.608Z,8.90
2018-03-15T13:06:14.496Z,8.57
2018-03-15T13:08:46.592Z,7.53
2018-03-15T13:11:18.483Z,11.73
2018-03-15T13:13:50.368Z,8.63
2018-03-15T13:16:23.024Z,7.27
2018-03-15T13:18:54.907Z,9.23
2018-03-15T13:21:27.560Z,9.23
2018-03-15T13:23:59.660Z,9.40
2018-03-15T13:26:31.581Z,8.47
2018-03-15T13:29:03.687Z,7.53
2018-03-15T13:31:35.587Z,8.40
2018-03-15T13:34:07.483Z,7.80
2018-03-15T13:36:39.555Z,8.50
2018-03-15T13:39:12.239Z,7.73
2018-03-15T13:41:44.960Z,6.50
2018-03-15T13:44:16.958Z,8.73
2018-03-15T13:46:49.629Z,7.90
2018-03-15T13:49:21.501Z,6.13
2018-03-15T13:51:53.702Z,5.90
2018-03-15T13:54:25.612Z,7.40
2018-03-15T13:56:57.706Z,6.47
2018-03-15T13:59:30.356Z,6.43
2018-03-15T14:02:02.276Z,5.17
2018-03-15T14:04:34.156Z,5.63
2018-03-15T14:07:06.044Z,6.43
2018-03-15T14:09:37.920Z,6.13
2018-03-15T14:12:09.821Z,7.70
2018-03-15T14:14:41.687Z,8.13
2018-03-15T14:17:13.575Z,5.93
2018-03-15T14:19:45.478Z,5.97
2018-03-15T14:22:18.144Z,8.37
2018-03-15T14:24:50.048Z,5.80
2018-03-15T14:27:21.989Z,6.40
2018-03-15T14:29:53.949Z,4.93
2018-03-15T14:32:25.847Z,6.20
2018-03-15T14:34:57.816Z,5.73
2018-03-15T14:37:30.421Z,8.73
2018-03-15T14:40:02.367Z,6.27
2018-03-15T14:42:34.297Z,4.87
2018-03-15T14:45:06.196Z,4.80
2018-03-15T14:47:38.077Z,6.03
2018-03-15T14:50:10.708Z,7.70
2018-03-15T14:52:42.636Z,5.90
2018-03-15T14:55:14.804Z,6.83
2018-03-15T14:57:46.706Z,6.97
2018-03-15T15:00:18.588Z,6.47
2018-03-15T15:02:50.481Z,6.43
2018-03-15T15:05:22.441Z,6.20
2018-03-15T15:07:54.333Z,7.93
2018-03-15T15:10:26.468Z,11.47
2018-03-15T15:12:58.373Z,6.17
2018-03-15T15:15:30.492Z,4.87
2018-03-15T15:18:02.489Z,5.43
2018-03-15T15:20:34.724Z,4.67
2018-03-15T15:23:06.624Z,7.30
2018-03-15T15:25:38.512Z,6.17
2018-03-15T15:28:10.573Z,5.70
2018-03-15T15:30:43.479Z,6.97
2018-03-15T15:33:16.172Z,5.03
2018-03-15T15:35:48.085Z,5.37
2018-03-15T15:38:20.080Z,8.00
2018-03-15T15:40:52.805Z,5.20
2018-03-15T15:43:24.779Z,5.77
2018-03-15T15:45:56.690Z,5.40
2018-03-15T15:48:29.352Z,4.70
2018-03-15T15:51:01.288Z,4.47
2018-03-15T15:53:33.202Z,5.57
2018-03-15T15:56:05.906Z,7.20
2018-03-15T15:58:37.891Z,7.80
2018-03-15T16:01:09.936Z,7.10
2018-03-15T16:03:42.552Z,7.23
2018-03-15T16:06:14.431Z,8.73
2018-03-15T16:08:47.107Z,6.87
2018-03-15T16:11:19.765Z,6.50
2018-03-15T16:13:51.858Z,6.83
2018-03-15T16:16:23.796Z,8.20
2018-03-15T16:18:55.683Z,7.73
2018-03-15T16:21:28.332Z,6.73
2018-03-15T16:24:00.255Z,7.40
2018-03-15T16:26:32.135Z,8.17
2018-03-15T16:29:04.028Z,6.70
2018-03-15T16:31:36.696Z,7.53
2018-03-15T16:34:08.591Z,6.47
2018-03-15T16:36:40.549Z,8.00
2018-03-15T16:39:13.248Z,7.57
2018-03-15T16:41:45.400Z,6.10
2018-03-15T16:44:17.300Z,5.63
2018-03-15T16:46:49.231Z,6.17
2018-03-15T16:49:21.124Z,11.93
2018-03-15T16:51:53.364Z,7.23
2018-03-15T16:54:25.314Z,8.37
2018-03-15T16:56:57.369Z,6.63
2018-03-15T16:59:29.439Z,10.37
2018-03-15T17:02:01.309Z,6.83
2018-03-15T17:04:33.196Z,8.37
2018-03-15T17:07:05.158Z,10.33
2018-03-15T17:09:37.055Z,9.87
2018-03-15T17:12:08.933Z,10.40
2018-03-15T17:14:41.643Z,7.87
2018-03-15T17:17:13.675Z,9.23
2018-03-15T17:19:46.413Z,8.10
2018-03-15T17:22:18.995Z,6.20
2018-03-15T17:24:50.914Z,8.53
2018-03-15T17:27:23.556Z,6.60
2018-03-15T17:29:56.216Z,6.60
2018-03-15T17:32:28.095Z,6.80
2018-03-15T17:35:00.757Z,6.33
2018-03-15T17:37:32.656Z,7.77
2018-03-15T17:40:04.566Z,7.67
2018-03-15T17:42:36.465Z,7.77
2018-03-15T17:45:10.641Z,6.63
2018-03-15T17:47:42.551Z,8.00
2018-03-15T17:50:14.467Z,8.67
2018-03-15T17:52:46.421Z,6.83
2018-03-15T17:55:18.316Z,8.80
2018-03-15T17:57:50.975Z,7.83
2018-03-15T18:00:22.880Z,10.27
2018-03-15T18:02:55.254Z,8.87
2018-03-15T18:05:27.184Z,10.03
2018-03-15T18:07:59.498Z,7.97
2018-03-15T18:10:31.401Z,11.83
2018-03-15T18:13:03.290Z,8.57
2018-03-15T18:15:35.937Z,10.40
2018-03-15T18:18:08.048Z,11.50
2018-03-15T18:20:39.973Z,10.50
2018-03-15T18:23:11.872Z,11.47
2018-03-15T18:25:43.791Z,10.43
2018-03-15T18:28:15.713Z,10.63
2018-03-15T18:30:47.616Z,14.50
2018-03-15T18:33:19.516Z,13.13
2018-03-15T18:35:51.411Z,11.60
2018-03-15T18:38:23.317Z,11.23
2018-03-15T18:40:55.965Z,10.97
2018-03-15T18:43:27.868Z,12.90
2018-03-15T18:45:59.824Z,12.13
2018-03-15T18:48:31.923Z,12.57
2018-03-15T18:51:03.808Z,13.47
2018-03-15T18:53:35.712Z,11.73
2018-03-15T18:56:08.343Z,12.23
2018-03-15T18:58:40.260Z,12.70
2018-03-15T19:01:12.615Z,14.77
2018-03-15T19:03:44.058Z,14.20
2018-03-15T19:06:16.696Z,13.87
2018-03-15T19:08:48.581Z,15.10
2018-03-15T19:11:20.600Z,17.33
2018-03-15T19:13:52.524Z,16.93
2018-03-15T19:16:25.256Z,21.03
2018-03-15T19:18:57.385Z,18.70
2018-03-15T19:21:29.328Z,18.47
2018-03-15T19:24:02.153Z,20.23
2018-03-15T19:26:34.024Z,19.93
2018-03-15T19:29:05.924Z,16.27
2018-03-15T19:31:39.507Z,20.40
2018-03-15T19:34:11.712Z,14.30
2018-03-15T19:36:43.670Z,18.10
2018-03-15T19:39:15.796Z,15.93
2018-03-15T19:41:47.753Z,16.97
2018-03-15T19:44:19.939Z,21.80
2018-03-15T19:47:03.588Z,19.80
2018-03-15T19:49:37.168Z,14.70
2018-03-15T19:52:09.097Z,16.97
2018-03-15T19:54:41.013Z,16.30
2018-03-15T19:57:13.664Z,25.27
2018-03-15T19:59:45.554Z,20.30
2018-03-15T20:02:18.194Z,19.37
2018-03-15T20:04:50.109Z,17.67
2018-03-15T20:07:21.982Z,16.40
2018-03-15T20:09:53.868Z,14.87
2018-03-15T20:12:25.748Z,18.67
2018-03-15T20:14:57.662Z,15.17
2018-03-15T20:17:29.589Z,14.70
2018-03-15T20:20:02.244Z,16.07
2018-03-15T20:22:34.355Z,15.97
2018-03-15T20:25:06.273Z,16.70
2018-03-15T20:27:38.148Z,15.60
2018-03-15T20:30:10.036Z,13.40
2018-03-15T20:32:41.951Z,17.97
2018-03-15T20:35:13.856Z,15.93
2018-03-15T20:37:45.724Z,15.20
2018-03-15T20:40:17.623Z,17.57
2018-03-15T20:42:49.501Z,14.70
2018-03-15T20:45:21.406Z,18.10
2018-03-15T20:47:53.280Z,19.70
2018-03-15T20:50:25.172Z,19.07
2018-03-15T20:52:57.043Z,17.03
2018-03-15T20:55:28.938Z,18.37
2018-03-15T20:58:00.812Z,17.53
2018-03-15T21:00:32.703Z,20.73
2018-03-15T21:03:04.588Z,18.50
2018-03-15T21:05:36.474Z,16.83
2018-03-15T21:08:09.158Z,19.47
2018-03-15T21:10:41.058Z,16.47
2018-03-15T21:13:12.939Z,17.63
2018-03-15T21:15:44.832Z,21.83
2018-03-15T21:18:17.472Z,16.90
2018-03-15T21:20:49.377Z,15.93
2018-03-15T21:23:21.256Z,19.47
2018-03-15T21:25:53.229Z,18.80
2018-03-15T21:28:25.104Z,17.57
2018-03-15T21:30:56.987Z,17.97
2018-03-15T21:33:28.923Z,16.33
2018-03-15T21:36:00.783Z,18.83
2018-03-15T21:38:32.651Z,16.17
2018-03-15T21:41:04.545Z,18.30
2018-03-15T21:43:37.210Z,20.10
2018-03-15T21:46:09.413Z,18.17
2018-03-15T21:48:41.289Z,17.20
2018-03-15T21:51:13.181Z,17.43
2018-03-15T21:53:45.076Z,15.53
2018-03-15T21:56:17.731Z,17.67
2018-03-15T21:58:49.616Z,17.13
2018-03-15T22:01:22.264Z,19.63
2018-03-15T22:03:54.135Z,17.70
2018-03-15T22:06:26.024Z,18.23
2018-03-15T22:08:57.906Z,20.57
2018-03-15T22:11:29.795Z,17.50
2018-03-15T22:14:01.689Z,16.03
2018-03-15T22:16:34.374Z,18.70
2018-03-15T22:19:06.256Z,17.03
2018-03-15T22:21:38.160Z,17.57
2018-03-15T22:24:10.068Z,19.90
2018-03-15T22:26:41.956Z,18.37
2018-03-15T22:29:13.830Z,19.77
2018-03-15T22:31:45.756Z,20.07
2018-03-15T22:34:17.640Z,18.57
2018-03-15T22:36:49.886Z,20.60
2018-03-15T22:39:21.766Z,20.97
2018-03-15T22:41:53.689Z,21.00
2018-03-15T22:44:26.336Z,20.33
2018-03-15T22:46:58.272Z,19.17
2018-03-15T22:49:30.151Z,20.70
2018-03-15T22:52:02.355Z,17.07
2018-03-15T22:54:34.264Z,17.93
2018-03-15T22:57:06.153Z,20.93
2018-03-15T22:59:38.050Z,18.33
2018-03-15T23:02:09.956Z,20.13
2018-03-15T23:04:41.837Z,19.13
2018-03-15T23:07:13.731Z,24.03
2018-03-15T23:09:45.619Z,22.07
2018-03-15T23:12:17.507Z,21.33
2018-03-15T23:14:49.440Z,18.67
2018-03-15T23:17:21.322Z,17.30
2018-03-15T23:19:53.206Z,16.50
2018-03-15T23:22:25.855Z,16.00
2018-03-15T23:24:57.732Z,19.97
2018-03-15T23:27:29.648Z,17.27
2018-03-15T23:30:01.515Z,17.10
2018-03-15T23:32:33.416Z,18.63
2018-03-15T23:35:05.301Z,17.23
2018-03-15T23:37:37.197Z,17.37
2018-03-15T23:40:09.066Z,17.60
2018-03-15T23:42:41.719Z,20.17
2018-03-15T23:45:13.596Z,15.67
2018-03-15T23:47:45.496Z,18.83
2018-03-15T23:50:17.392Z,15.50
2018-03-15T23:52:49.271Z,17.00
2018-03-15T23:55:21.403Z,19.27
2018-03-15T23:57:53.302Z,17.80
